createdAt,value
2019-01-04T00:06:30.667Z,102655.27
2019-01-04T00:11:26.706Z,102651.52
2019-01-04T00:16:22.620Z,102655.25
2019-01-04T00:21:18.627Z,102651.31
2019-01-04T00:26:56.194Z,102665.58
2019-01-04T00:31:52.112Z,102669.78
2019-01-04T00:36:48.039Z,102663.55
2019-01-04T00:41:43.952Z,102663.33
2019-01-04T00:47:00.256Z,102655.66
2019-01-04T00:51:56.184Z,102668.72
2019-01-04T00:57:31.816Z,102678.77
2019-01-04T01:03:09.376Z,102664.88
2019-01-04T01:08:45.004Z,102661.84
2019-01-04T01:14:22.542Z,102663.48
2019-01-04T01:19:58.627Z,102674.24
2019-01-04T01:25:34.222Z,102671.79
2019-01-04T01:31:11.756Z,102687.27
2019-01-04T01:36:47.394Z,102693.79
2019-01-04T01:42:23.058Z,102702.10
2019-01-04T01:48:00.595Z,102693.32
2019-01-04T01:52:56.494Z,102684.11
2019-01-04T01:57:52.381Z,102679.73
2019-01-04T02:07:51.416Z,102671.35
2019-01-04T02:12:47.430Z,102663.89
2019-01-04T02:17:43.351Z,102665.31
2019-01-04T02:22:39.308Z,102668.38
2019-01-04T02:27:35.328Z,102672.16
2019-01-04T02:32:31.256Z,102663.22
2019-01-04T02:37:27.187Z,102660.19
2019-01-04T02:42:23.216Z,102658.42
2019-01-04T02:47:19.257Z,102670.30
2019-01-04T02:52:15.189Z,102677.11
2019-01-04T02:57:11.119Z,102672.88
2019-01-04T03:07:14.806Z,102673.75
2019-01-04T03:12:10.771Z,102651.14
2019-01-04T03:17:06.745Z,102649.19
2019-01-04T03:22:02.864Z,102649.23
2019-01-04T03:26:58.940Z,102641.95
2019-01-04T03:31:54.957Z,102632.64
2019-01-04T03:36:50.958Z,102631.22
2019-01-04T03:41:47.069Z,102618.03
2019-01-04T03:46:43.099Z,102624.75
2019-01-04T03:51:39.046Z,102629.08
2019-01-04T03:56:35.059Z,102637.73
2019-01-04T04:01:30.978Z,102634.41
2019-01-04T04:06:26.976Z,102625.15
2019-01-04T04:11:23.035Z,102619.47
2019-01-04T04:16:18.939Z,102608.36
2019-01-04T04:21:14.860Z,102609.73
2019-01-04T04:26:11.008Z,102605.47
2019-01-04T04:31:06.919Z,102592.87
2019-01-04T04:36:02.814Z,102582.14
2019-01-04T04:40:58.822Z,102592.70
2019-01-04T04:45:54.759Z,102595.64
2019-01-04T04:55:54.519Z,102590.40
2019-01-04T05:00:50.529Z,102600.55
2019-01-04T05:05:46.640Z,102589.48
2019-01-04T05:10:42.795Z,102579.98
2019-01-04T05:21:02.126Z,102581.70
2019-01-04T05:25:58.023Z,102581.43
2019-01-04T05:30:53.935Z,102553.67
2019-01-04T05:35:49.927Z,102553.57
2019-01-04T05:40:45.832Z,102551.83
2019-01-04T05:45:41.712Z,102553.13
2019-01-04T05:50:37.626Z,102551.17
2019-01-04T05:55:33.521Z,102556.83
2019-01-04T06:00:29.416Z,102540.72
2019-01-04T06:05:25.324Z,102536.86
2019-01-04T06:10:21.255Z,102538.09
2019-01-04T06:15:17.145Z,102546.41
2019-01-04T06:20:13.056Z,102543.80
2019-01-04T06:25:08.936Z,102540.91
2019-01-04T06:30:46.487Z,102527.20
2019-01-04T06:35:42.418Z,102547.94
2019-01-04T06:40:38.318Z,102553.95
2019-01-04T06:45:34.238Z,102530.32
2019-01-04T06:50:30.135Z,102528.20
2019-01-04T06:55:47.242Z,102533.96
2019-01-04T07:00:43.146Z,102544.72
2019-01-04T07:05:39.060Z,102544.05
2019-01-04T07:10:34.973Z,102537.39
2019-01-04T07:15:30.875Z,102532.76
2019-01-04T07:20:26.902Z,102541.27
2019-01-04T07:25:22.837Z,102523.58
2019-01-04T07:30:18.846Z,102524.24
2019-01-04T07:35:14.764Z,102531.71
2019-01-04T07:40:10.782Z,102535.54
2019-01-04T07:45:48.329Z,102532.44
2019-01-04T07:50:44.248Z,102535.61
2019-01-04T07:55:40.173Z,102521.81
2019-01-04T08:00:36.089Z,102523.30
2019-01-04T08:05:31.996Z,102511.53
2019-01-04T08:10:27.930Z,102506.34
2019-01-04T08:15:23.843Z,102490.50
2019-01-04T08:20:19.755Z,102484.92
2019-01-04T08:25:15.668Z,102493.25
2019-01-04T08:30:53.210Z,102483.98
2019-01-04T08:35:49.113Z,102488.25
2019-01-04T08:40:45.108Z,102486.41
2019-01-04T08:45:42.084Z,102477.59
2019-01-04T08:50:38.127Z,102489.71
2019-01-04T08:55:34.037Z,102490.73
2019-01-04T09:00:36.948Z,102491.57
2019-01-04T09:05:32.881Z,102473.41
2019-01-04T09:10:28.805Z,102464.53
2019-01-04T09:15:24.697Z,102464.53
2019-01-04T09:20:20.599Z,102469.59
2019-01-04T09:25:16.603Z,102454.86
2019-01-04T09:30:12.811Z,102457.15
2019-01-04T09:35:08.709Z,102450.03
2019-01-04T09:40:46.282Z,102444.39
2019-01-04T09:45:42.196Z,102436.34
2019-01-04T09:50:38.231Z,102426.66
2019-01-04T09:55:34.124Z,102415.61
2019-01-04T10:00:30.053Z,102415.50
2019-01-04T10:05:25.976Z,102415.05
2019-01-04T10:10:21.876Z,102400.84
2019-01-04T10:15:17.802Z,102395.52
2019-01-04T10:25:16.323Z,102379.17
2019-01-04T10:30:54.240Z,102364.90
2019-01-04T10:35:50.958Z,102359.39
2019-01-04T10:45:52.773Z,102339.58
2019-01-04T10:51:09.547Z,102336.52
2019-01-04T10:56:26.812Z,102327.55
2019-01-04T11:06:59.294Z,102323.08
2019-01-04T11:11:55.214Z,102322.66
2019-01-04T11:16:51.285Z,102313.09
2019-01-04T11:21:47.194Z,102306.83
2019-01-04T11:27:24.778Z,102306.21
2019-01-04T11:33:02.348Z,102301.86
2019-01-04T11:38:40.165Z,102308.73
2019-01-04T11:44:15.931Z,102294.98
2019-01-04T11:49:52.071Z,102305.90
2019-01-04T11:54:47.937Z,102281.03
2019-01-04T11:59:43.826Z,102258.92
2019-01-04T12:04:39.832Z,102248.48
2019-01-04T12:09:35.809Z,102253.71
2019-01-04T12:19:40.932Z,102224.80
2019-01-04T12:24:37.849Z,102215.01
2019-01-04T12:29:34.688Z,102211.11
2019-01-04T12:34:30.730Z,102193.34
2019-01-04T12:39:26.748Z,102178.56
2019-01-04T12:44:22.753Z,102153.83
2019-01-04T12:49:19.685Z,102151.67
2019-01-04T12:54:15.700Z,102156.77
2019-01-04T12:59:11.632Z,102154.64
2019-01-04T13:04:07.559Z,102168.35
2019-01-04T13:09:45.165Z,102155.26
2019-01-04T13:15:04.071Z,102149.56
2019-01-04T13:25:22.572Z,102143.75
2019-01-04T13:30:18.952Z,102126.49
2019-01-04T13:35:14.956Z,102110.88
2019-01-04T13:40:10.897Z,102129.67
2019-01-04T13:45:06.945Z,102138.79
2019-01-04T13:50:44.520Z,102132.77
2019-01-04T13:55:40.608Z,102125.44
2019-01-04T14:00:36.547Z,102137.03
2019-01-04T14:05:32.443Z,102150.38
2019-01-04T14:10:28.422Z,102166.97
2019-01-04T14:15:24.353Z,102161.78
2019-01-04T14:21:02.048Z,102166.38
2019-01-04T14:25:58.021Z,102159.74
2019-01-04T14:30:53.954Z,102143.67
2019-01-04T14:35:50.637Z,102131.72
2019-01-04T14:40:46.658Z,102126.02
2019-01-04T14:45:42.603Z,102116.09
2019-01-04T14:50:38.575Z,102120.57
2019-01-04T14:55:34.548Z,102131.59
2019-01-04T15:00:30.505Z,102135.88
2019-01-04T15:05:26.399Z,102126.62
2019-01-04T15:10:22.304Z,102127.81
2019-01-04T15:15:18.212Z,102117.39
2019-01-04T15:20:14.148Z,102124.97
2019-01-04T15:25:10.069Z,102109.70
2019-01-04T15:30:47.621Z,102110.88
2019-01-04T15:35:43.536Z,102104.37
2019-01-04T15:40:39.443Z,102100.02
2019-01-04T15:45:35.344Z,102091.23
2019-01-04T15:50:31.249Z,102087.69
2019-01-04T15:55:27.188Z,102088.53
2019-01-04T16:00:23.089Z,102088.05
2019-01-04T16:05:18.978Z,102081.30
2019-01-04T16:10:14.898Z,102072.30
2019-01-04T16:15:10.851Z,102070.75
2019-01-04T16:20:48.405Z,102063.06
2019-01-04T16:25:44.298Z,102061.50
2019-01-04T16:30:40.228Z,102063.66
2019-01-04T16:35:36.124Z,102052.17
2019-01-04T16:40:32.028Z,102041.14
2019-01-04T16:45:27.937Z,102031.09
2019-01-04T16:50:24.579Z,102030.24
2019-01-04T16:55:20.547Z,102031.66
2019-01-04T17:00:16.462Z,102032.97
2019-01-04T17:05:12.528Z,102033.69
2019-01-04T17:10:08.527Z,102027.30
2019-01-04T17:15:46.091Z,102031.44
2019-01-04T17:20:41.995Z,102021.23
2019-01-04T17:25:37.951Z,102022.52
2019-01-04T17:30:33.954Z,102018.16
2019-01-04T17:35:29.855Z,102014.61
2019-01-04T17:40:25.764Z,102020.52
2019-01-04T17:45:21.683Z,102020.63
2019-01-04T17:50:17.628Z,102015.54
2019-01-04T17:55:13.578Z,102015.54
2019-01-04T18:00:09.707Z,102011.98
2019-01-04T18:05:05.705Z,102003.56
2019-01-04T18:10:01.633Z,102003.30
2019-01-04T18:20:21.435Z,102016.70
2019-01-04T18:25:17.341Z,102017.30
2019-01-04T18:30:13.237Z,102017.86
2019-01-04T18:35:51.176Z,102022.62
2019-01-04T18:40:47.286Z,102038.00
2019-01-04T18:45:43.861Z,102035.27
2019-01-04T18:55:44.287Z,102030.88
2019-01-04T19:00:40.245Z,102027.66
2019-01-04T19:05:36.185Z,102032.88
2019-01-04T19:10:32.120Z,102036.42
2019-01-04T19:15:28.056Z,102035.83
2019-01-04T19:20:24.006Z,102036.31
2019-01-04T19:25:19.910Z,102037.72
2019-01-04T19:30:15.871Z,102036.29
2019-01-04T19:35:11.774Z,102030.00
2019-01-04T19:40:07.747Z,102030.33
2019-01-04T19:45:45.360Z,102023.82
2019-01-04T19:50:41.278Z,102024.27
2019-01-04T19:55:37.171Z,102026.19
2019-01-04T20:00:33.085Z,102026.75
2019-01-04T20:06:11.303Z,102025.58
2019-01-04T20:11:49.047Z,102023.43
2019-01-04T20:17:26.599Z,102017.86
2019-01-04T20:22:42.377Z,102010.03
2019-01-04T20:27:58.263Z,102000.64
2019-01-04T20:33:14.042Z,102004.55
2019-01-04T20:38:29.866Z,102001.23
2019-01-04T20:43:45.678Z,101997.19
2019-01-04T20:49:02.021Z,101998.01
2019-01-04T20:54:17.810Z,101985.81
2019-01-04T20:59:33.633Z,101978.09
2019-01-04T21:04:49.403Z,101966.70
2019-01-04T21:15:08.955Z,101964.42
2019-01-04T21:30:33.305Z,101945.50
2019-01-04T21:35:49.078Z,101938.03
2019-01-04T21:41:04.873Z,101948.56
2019-01-04T21:46:20.676Z,101932.28
2019-01-04T21:51:36.481Z,101921.93
2019-01-04T21:56:52.329Z,101925.52
2019-01-04T22:02:08.111Z,101928.81
2019-01-04T22:07:23.890Z,101915.17
2019-01-04T22:12:39.748Z,101918.20
2019-01-04T22:17:55.545Z,101910.12
2019-01-04T22:23:11.346Z,101893.48
2019-01-04T22:28:27.146Z,101896.09
2019-01-04T22:33:37.066Z,101892.02
2019-01-04T22:38:41.070Z,101889.14
2019-01-04T22:43:38.869Z,101892.44
2019-01-04T22:48:43.155Z,101888.24
2019-01-04T22:53:41.182Z,101878.90
2019-01-04T22:58:39.000Z,101877.91
2019-01-04T23:03:42.630Z,101870.93
2019-01-04T23:08:46.247Z,101865.08
2019-01-04T23:13:44.064Z,101856.57
2019-01-04T23:18:43.224Z,101855.27
2019-01-04T23:29:18.920Z,101853.20
2019-01-04T23:34:35.112Z,101846.34
2019-01-04T23:39:45.076Z,101837.66
2019-01-04T23:44:51.711Z,101835.62
2019-01-04T23:49:52.337Z,101830.89
2019-01-04T23:55:06.911Z,101831.57
